sensor_id;sensor_type;location;lat;lon;timestamp;temperature;humidity
60353;DHT22;46196;52.970;6.954;2023-04-28T00:01:58;6.80;99.90
60353;DHT22;46196;52.970;6.954;2023-04-28T00:04:24;6.80;99.90
60353;DHT22;46196;52.970;6.954;2023-04-28T00:06:50;6.70;99.90
60353;DHT22;46196;52.970;6.954;2023-04-28T00:09:15;6.70;99.90
60353;DHT22;46196;52.970;6.954;2023-04-28T00:11:44;6.90;99.90
60353;DHT22;46196;52.970;6.954;2023-04-28T00:14:11;6.70;99.90
60353;DHT22;46196;52.970;6.954;2023-04-28T00:16:38;6.70;99.90
60353;DHT22;46196;52.970;6.954;2023-04-28T00:19:04;6.20;99.90
60353;DHT22;46196;52.970;6.954;2023-04-28T00:21:30;6.70;99.90
60353;DHT22;46196;52.970;6.954;2023-04-28T00:23:56;6.70;99.90
60353;DHT22;46196;52.970;6.954;2023-04-28T00:26:22;6.70;99.90
60353;DHT22;46196;52.970;6.954;2023-04-28T00:28:48;6.70;99.90
60353;DHT22;46196;52.970;6.954;2023-04-28T00:31:14;6.70;99.90
60353;DHT22;46196;52.970;6.954;2023-04-28T00:33:41;6.70;99.90
60353;DHT22;46196;52.970;6.954;2023-04-28T00:36:08;6.70;99.90
60353;DHT22;46196;52.970;6.954;2023-04-28T00:38:34;6.70;99.90
60353;DHT22;46196;52.970;6.954;2023-04-28T00:41:00;6.70;99.90
60353;DHT22;46196;52.970;6.954;2023-04-28T00:43:25;6.70;99.90
60353;DHT22;46196;52.970;6.954;2023-04-28T00:45:51;6.70;99.90
60353;DHT22;46196;52.970;6.954;2023-04-28T00:48:18;6.70;99.90
60353;DHT22;46196;52.970;6.954;2023-04-28T00:50:44;6.70;99.90
60353;DHT22;46196;52.970;6.954;2023-04-28T00:53:11;6.70;99.90
60353;DHT22;46196;52.970;6.954;2023-04-28T00:55:37;6.70;99.90
60353;DHT22;46196;52.970;6.954;2023-04-28T00:58:04;6.60;99.90
60353;DHT22;46196;52.970;6.954;2023-04-28T01:00:30;6.60;99.90
60353;DHT22;46196;52.970;6.954;2023-04-28T01:02:56;6.60;99.90
60353;DHT22;46196;52.970;6.954;2023-04-28T01:05:26;6.60;99.90
60353;DHT22;46196;52.970;6.954;2023-04-28T01:07:52;6.60;99.90
60353;DHT22;46196;52.970;6.954;2023-04-28T01:10:18;6.60;99.90
60353;DHT22;46196;52.970;6.954;2023-04-28T01:12:44;6.70;99.90
60353;DHT22;46196;52.970;6.954;2023-04-28T01:15:17;6.60;99.90
60353;DHT22;46196;52.970;6.954;2023-04-28T01:17:45;6.70;99.90
60353;DHT22;46196;52.970;6.954;2023-04-28T01:20:11;6.60;99.90
60353;DHT22;46196;52.970;6.954;2023-04-28T01:22:37;6.60;99.90
60353;DHT22;46196;52.970;6.954;2023-04-28T01:25:03;6.60;99.90
60353;DHT22;46196;52.970;6.954;2023-04-28T01:27:29;6.70;99.90
60353;DHT22;46196;52.970;6.954;2023-04-28T01:29:54;6.60;99.90
60353;DHT22;46196;52.970;6.954;2023-04-28T01:32:20;6.60;99.90
60353;DHT22;46196;52.970;6.954;2023-04-28T01:34:45;6.60;99.90
60353;DHT22;46196;52.970;6.954;2023-04-28T01:37:12;6.60;99.90
60353;DHT22;46196;52.970;6.954;2023-04-28T01:39:37;6.60;99.90
60353;DHT22;46196;52.970;6.954;2023-04-28T01:42:03;6.60;99.90
60353;DHT22;46196;52.970;6.954;2023-04-28T01:44:29;6.70;99.90
60353;DHT22;46196;52.970;6.954;2023-04-28T01:46:55;6.70;99.90
60353;DHT22;46196;52.970;6.954;2023-04-28T01:49:20;6.70;99.90
60353;DHT22;46196;52.970;6.954;2023-04-28T01:51:46;6.70;99.90
60353;DHT22;46196;52.970;6.954;2023-04-28T01:54:12;6.60;99.90
60353;DHT22;46196;52.970;6.954;2023-04-28T01:56:38;6.70;99.90
60353;DHT22;46196;52.970;6.954;2023-04-28T01:59:03;6.70;99.90
60353;DHT22;46196;52.970;6.954;2023-04-28T02:01:29;6.70;99.90
60353;DHT22;46196;52.970;6.954;2023-04-28T02:03:54;6.70;99.90
60353;DHT22;46196;52.970;6.954;2023-04-28T02:06:20;6.70;99.90
60353;DHT22;46196;52.970;6.954;2023-04-28T02:08:46;6.70;99.90
60353;DHT22;46196;52.970;6.954;2023-04-28T02:11:12;6.60;99.90
60353;DHT22;46196;52.970;6.954;2023-04-28T02:13:37;6.60;99.90
60353;DHT22;46196;52.970;6.954;2023-04-28T02:16:03;6.60;99.90
60353;DHT22;46196;52.970;6.954;2023-04-28T02:18:29;6.60;99.90
60353;DHT22;46196;52.970;6.954;2023-04-28T02:20:55;6.60;99.90
60353;DHT22;46196;52.970;6.954;2023-04-28T02:23:20;6.60;99.90
60353;DHT22;46196;52.970;6.954;2023-04-28T02:25:46;6.50;99.90
60353;DHT22;46196;52.970;6.954;2023-04-28T02:28:12;6.50;99.90
60353;DHT22;46196;52.970;6.954;2023-04-28T02:30:38;6.50;99.90
60353;DHT22;46196;52.970;6.954;2023-04-28T02:33:04;6.50;99.90
60353;DHT22;46196;52.970;6.954;2023-04-28T02:35:30;6.50;99.90
60353;DHT22;46196;52.970;6.954;2023-04-28T02:37:55;8.10;99.90
60353;DHT22;46196;52.970;6.954;2023-04-28T02:40:21;6.40;99.90
60353;DHT22;46196;52.970;6.954;2023-04-28T02:42:47;6.70;99.90
60353;DHT22;46196;52.970;6.954;2023-04-28T02:45:12;6.40;99.90
60353;DHT22;46196;52.970;6.954;2023-04-28T02:47:38;6.40;99.90
60353;DHT22;46196;52.970;6.954;2023-04-28T02:50:04;6.40;99.90
60353;DHT22;46196;52.970;6.954;2023-04-28T02:52:31;6.40;99.90
60353;DHT22;46196;52.970;6.954;2023-04-28T02:54:57;6.40;99.90
60353;DHT22;46196;52.970;6.954;2023-04-28T02:57:23;6.30;99.90
60353;DHT22;46196;52.970;6.954;2023-04-28T02:59:49;6.30;99.90
60353;DHT22;46196;52.970;6.954;2023-04-28T03:02:15;6.30;99.90
60353;DHT22;46196;52.970;6.954;2023-04-28T03:04:41;6.30;99.90
60353;DHT22;46196;52.970;6.954;2023-04-28T03:07:07;6.30;99.90
60353;DHT22;46196;52.970;6.954;2023-04-28T03:09:32;6.30;99.90
60353;DHT22;46196;52.970;6.954;2023-04-28T03:11:58;6.20;99.90
60353;DHT22;46196;52.970;6.954;2023-04-28T03:14:24;6.20;99.90
60353;DHT22;46196;52.970;6.954;2023-04-28T03:16:49;6.20;99.90
60353;DHT22;46196;52.970;6.954;2023-04-28T03:19:15;6.20;99.90
60353;DHT22;46196;52.970;6.954;2023-04-28T03:21:41;6.20;99.90
60353;DHT22;46196;52.970;6.954;2023-04-28T03:24:07;6.10;99.90
60353;DHT22;46196;52.970;6.954;2023-04-28T03:26:33;6.10;99.90
60353;DHT22;46196;52.970;6.954;2023-04-28T03:28:59;6.10;99.90
60353;DHT22;46196;52.970;6.954;2023-04-28T03:31:25;6.00;99.90
60353;DHT22;46196;52.970;6.954;2023-04-28T03:33:50;6.00;99.90
60353;DHT22;46196;52.970;6.954;2023-04-28T03:36:16;6.00;99.90
60353;DHT22;46196;52.970;6.954;2023-04-28T03:38:42;6.00;99.90
60353;DHT22;46196;52.970;6.954;2023-04-28T03:41:08;6.00;99.90
60353;DHT22;46196;52.970;6.954;2023-04-28T03:43:34;6.00;99.90
60353;DHT22;46196;52.970;6.954;2023-04-28T03:46:05;5.90;99.90
60353;DHT22;46196;52.970;6.954;2023-04-28T03:48:31;6.00;99.90
60353;DHT22;46196;52.970;6.954;2023-04-28T03:50:57;6.00;99.90
60353;DHT22;46196;52.970;6.954;2023-04-28T03:53:22;6.00;99.90
60353;DHT22;46196;52.970;6.954;2023-04-28T03:55:48;6.00;99.90
60353;DHT22;46196;52.970;6.954;2023-04-28T03:58:14;6.00;99.90
60353;DHT22;46196;52.970;6.954;2023-04-28T04:00:40;6.00;99.90
60353;DHT22;46196;52.970;6.954;2023-04-28T04:03:06;6.00;99.90
60353;DHT22;46196;52.970;6.954;2023-04-28T04:05:31;6.00;99.90
60353;DHT22;46196;52.970;6.954;2023-04-28T04:07:57;6.00;99.90
60353;DHT22;46196;52.970;6.954;2023-04-28T04:10:23;6.00;99.90
60353;DHT22;46196;52.970;6.954;2023-04-28T04:12:48;6.00;99.90
60353;DHT22;46196;52.970;6.954;2023-04-28T04:15:14;6.00;99.90
60353;DHT22;46196;52.970;6.954;2023-04-28T04:17:40;6.00;99.90
60353;DHT22;46196;52.970;6.954;2023-04-28T04:20:06;6.00;99.90
60353;DHT22;46196;52.970;6.954;2023-04-28T04:22:32;6.10;99.90
60353;DHT22;46196;52.970;6.954;2023-04-28T04:24:58;6.10;99.90
60353;DHT22;46196;52.970;6.954;2023-04-28T04:27:24;6.10;99.90
60353;DHT22;46196;52.970;6.954;2023-04-28T04:29:49;6.10;99.90
60353;DHT22;46196;52.970;6.954;2023-04-28T04:32:15;6.10;99.90
60353;DHT22;46196;52.970;6.954;2023-04-28T04:34:41;6.10;99.90
60353;DHT22;46196;52.970;6.954;2023-04-28T04:37:07;6.10;99.90
60353;DHT22;46196;52.970;6.954;2023-04-28T04:39:33;6.20;99.90
60353;DHT22;46196;52.970;6.954;2023-04-28T04:41:59;6.20;99.90
60353;DHT22;46196;52.970;6.954;2023-04-28T04:44:24;6.20;99.90
60353;DHT22;46196;52.970;6.954;2023-04-28T04:46:50;6.20;99.90
60353;DHT22;46196;52.970;6.954;2023-04-28T04:49:16;6.20;99.90
60353;DHT22;46196;52.970;6.954;2023-04-28T04:51:42;6.00;99.90
60353;DHT22;46196;52.970;6.954;2023-04-28T04:54:08;6.30;99.90
60353;DHT22;46196;52.970;6.954;2023-04-28T04:56:33;6.40;99.90
60353;DHT22;46196;52.970;6.954;2023-04-28T04:58:59;6.30;99.90
60353;DHT22;46196;52.970;6.954;2023-04-28T05:01:25;6.30;99.90
60353;DHT22;46196;52.970;6.954;2023-04-28T05:03:51;6.30;99.90
60353;DHT22;46196;52.970;6.954;2023-04-28T05:06:16;7.40;99.90
60353;DHT22;46196;52.970;6.954;2023-04-28T05:08:42;6.30;99.90
60353;DHT22;46196;52.970;6.954;2023-04-28T05:11:08;6.40;99.90
60353;DHT22;46196;52.970;6.954;2023-04-28T05:13:33;5.50;99.90
60353;DHT22;46196;52.970;6.954;2023-04-28T05:15:59;6.40;99.90
60353;DHT22;46196;52.970;6.954;2023-04-28T05:18:25;6.50;99.90
60353;DHT22;46196;52.970;6.954;2023-04-28T05:20:51;6.50;99.90
60353;DHT22;46196;52.970;6.954;2023-04-28T05:23:16;6.50;99.90
60353;DHT22;46196;52.970;6.954;2023-04-28T05:25:42;6.40;99.90
60353;DHT22;46196;52.970;6.954;2023-04-28T05:28:11;6.50;99.90
60353;DHT22;46196;52.970;6.954;2023-04-28T05:30:37;6.50;99.90
60353;DHT22;46196;52.970;6.954;2023-04-28T05:33:02;6.50;99.90
60353;DHT22;46196;52.970;6.954;2023-04-28T05:35:28;6.50;99.90
60353;DHT22;46196;52.970;6.954;2023-04-28T05:37:56;6.60;99.90
60353;DHT22;46196;52.970;6.954;2023-04-28T05:40:22;6.60;99.90
60353;DHT22;46196;52.970;6.954;2023-04-28T05:42:48;8.40;99.90
60353;DHT22;46196;52.970;6.954;2023-04-28T05:45:13;6.60;99.90
60353;DHT22;46196;52.970;6.954;2023-04-28T05:47:39;6.70;99.90
60353;DHT22;46196;52.970;6.954;2023-04-28T05:50:06;6.70;99.90
60353;DHT22;46196;52.970;6.954;2023-04-28T05:52:32;6.70;99.90
60353;DHT22;46196;52.970;6.954;2023-04-28T05:54:57;6.80;99.90
60353;DHT22;46196;52.970;6.954;2023-04-28T05:57:23;6.90;99.90
60353;DHT22;46196;52.970;6.954;2023-04-28T05:59:49;7.00;99.90
60353;DHT22;46196;52.970;6.954;2023-04-28T06:02:15;7.10;99.90
60353;DHT22;46196;52.970;6.954;2023-04-28T06:04:41;7.10;99.90
60353;DHT22;46196;52.970;6.954;2023-04-28T06:07:08;7.20;99.90
60353;DHT22;46196;52.970;6.954;2023-04-28T06:09:35;7.30;99.90
60353;DHT22;46196;52.970;6.954;2023-04-28T06:12:01;7.70;99.90
60353;DHT22;46196;52.970;6.954;2023-04-28T06:14:28;7.40;99.90
60353;DHT22;46196;52.970;6.954;2023-04-28T06:16:54;7.50;99.90
60353;DHT22;46196;52.970;6.954;2023-04-28T06:19:19;7.60;99.90
60353;DHT22;46196;52.970;6.954;2023-04-28T06:21:45;7.60;99.90
60353;DHT22;46196;52.970;6.954;2023-04-28T06:24:11;7.60;99.90
60353;DHT22;46196;52.970;6.954;2023-04-28T06:26:37;7.70;99.90
60353;DHT22;46196;52.970;6.954;2023-04-28T06:29:03;7.70;99.90
60353;DHT22;46196;52.970;6.954;2023-04-28T06:31:28;7.70;99.90
60353;DHT22;46196;52.970;6.954;2023-04-28T06:33:54;7.70;99.90
60353;DHT22;46196;52.970;6.954;2023-04-28T06:36:20;7.70;99.90
60353;DHT22;46196;52.970;6.954;2023-04-28T06:38:46;7.70;99.90
60353;DHT22;46196;52.970;6.954;2023-04-28T06:41:12;7.70;99.90
60353;DHT22;46196;52.970;6.954;2023-04-28T06:43:37;7.70;99.90
60353;DHT22;46196;52.970;6.954;2023-04-28T06:46:03;7.70;99.90
60353;DHT22;46196;52.970;6.954;2023-04-28T06:48:29;7.70;99.90
60353;DHT22;46196;52.970;6.954;2023-04-28T06:50:55;7.70;99.90
60353;DHT22;46196;52.970;6.954;2023-04-28T06:53:21;7.70;99.90
60353;DHT22;46196;52.970;6.954;2023-04-28T06:55:46;7.70;99.90
60353;DHT22;46196;52.970;6.954;2023-04-28T06:58:12;7.70;99.90
60353;DHT22;46196;52.970;6.954;2023-04-28T07:00:38;7.70;99.90
60353;DHT22;46196;52.970;6.954;2023-04-28T07:03:03;7.70;99.90
60353;DHT22;46196;52.970;6.954;2023-04-28T07:05:29;7.70;99.90
60353;DHT22;46196;52.970;6.954;2023-04-28T07:07:55;7.70;99.90
60353;DHT22;46196;52.970;6.954;2023-04-28T07:10:21;7.70;99.90
60353;DHT22;46196;52.970;6.954;2023-04-28T07:12:49;7.80;99.90
60353;DHT22;46196;52.970;6.954;2023-04-28T07:15:16;7.70;99.90
60353;DHT22;46196;52.970;6.954;2023-04-28T07:17:42;7.80;99.90
60353;DHT22;46196;52.970;6.954;2023-04-28T07:20:08;7.80;99.90
60353;DHT22;46196;52.970;6.954;2023-04-28T07:22:34;7.90;99.90
60353;DHT22;46196;52.970;6.954;2023-04-28T07:24:59;7.90;99.90
60353;DHT22;46196;52.970;6.954;2023-04-28T07:27:25;8.00;99.90
60353;DHT22;46196;52.970;6.954;2023-04-28T07:29:51;8.00;99.90
60353;DHT22;46196;52.970;6.954;2023-04-28T07:32:17;8.10;99.90
60353;DHT22;46196;52.970;6.954;2023-04-28T07:34:42;8.10;99.90
60353;DHT22;46196;52.970;6.954;2023-04-28T07:37:08;8.20;99.90
60353;DHT22;46196;52.970;6.954;2023-04-28T07:39:36;8.30;99.90
60353;DHT22;46196;52.970;6.954;2023-04-28T07:42:03;9.00;99.90
60353;DHT22;46196;52.970;6.954;2023-04-28T07:44:30;8.40;99.90
60353;DHT22;46196;52.970;6.954;2023-04-28T07:46:57;8.40;99.90
60353;DHT22;46196;52.970;6.954;2023-04-28T07:49:23;8.50;99.90
60353;DHT22;46196;52.970;6.954;2023-04-28T07:51:49;8.50;99.90
60353;DHT22;46196;52.970;6.954;2023-04-28T07:54:16;8.50;99.90
60353;DHT22;46196;52.970;6.954;2023-04-28T07:56:42;8.50;99.90
60353;DHT22;46196;52.970;6.954;2023-04-28T07:59:08;8.50;99.90
60353;DHT22;46196;52.970;6.954;2023-04-28T08:01:34;8.60;99.90
60353;DHT22;46196;52.970;6.954;2023-04-28T08:03:59;8.60;99.90
60353;DHT22;46196;52.970;6.954;2023-04-28T08:06:25;8.60;99.90
60353;DHT22;46196;52.970;6.954;2023-04-28T08:08:51;8.70;99.90
60353;DHT22;46196;52.970;6.954;2023-04-28T08:11:17;8.80;99.90
60353;DHT22;46196;52.970;6.954;2023-04-28T08:13:42;8.90;99.90
60353;DHT22;46196;52.970;6.954;2023-04-28T08:16:08;9.00;99.90
60353;DHT22;46196;52.970;6.954;2023-04-28T08:18:34;9.10;99.90
60353;DHT22;46196;52.970;6.954;2023-04-28T08:21:00;9.20;99.90
60353;DHT22;46196;52.970;6.954;2023-04-28T08:23:25;9.40;99.90
60353;DHT22;46196;52.970;6.954;2023-04-28T08:25:56;9.50;99.90
60353;DHT22;46196;52.970;6.954;2023-04-28T08:28:22;9.70;99.90
60353;DHT22;46196;52.970;6.954;2023-04-28T08:30:48;9.80;99.90
60353;DHT22;46196;52.970;6.954;2023-04-28T08:33:14;9.90;99.90
60353;DHT22;46196;52.970;6.954;2023-04-28T08:35:39;10.00;99.90
60353;DHT22;46196;52.970;6.954;2023-04-28T08:38:06;10.10;99.90
60353;DHT22;46196;52.970;6.954;2023-04-28T08:40:32;10.20;99.90
60353;DHT22;46196;52.970;6.954;2023-04-28T08:42:59;10.20;99.90
60353;DHT22;46196;52.970;6.954;2023-04-28T08:45:25;10.30;99.90
60353;DHT22;46196;52.970;6.954;2023-04-28T08:47:53;10.40;99.90
60353;DHT22;46196;52.970;6.954;2023-04-28T08:50:21;10.60;99.90
60353;DHT22;46196;52.970;6.954;2023-04-28T08:52:47;10.80;99.90
60353;DHT22;46196;52.970;6.954;2023-04-28T08:55:14;11.10;99.90
60353;DHT22;46196;52.970;6.954;2023-04-28T08:57:45;11.30;99.90
60353;DHT22;46196;52.970;6.954;2023-04-28T09:00:14;11.50;99.90
60353;DHT22;46196;52.970;6.954;2023-04-28T09:02:39;11.70;99.90
60353;DHT22;46196;52.970;6.954;2023-04-28T09:05:09;12.00;99.90
60353;DHT22;46196;52.970;6.954;2023-04-28T09:07:35;12.20;99.90
60353;DHT22;46196;52.970;6.954;2023-04-28T09:10:23;12.30;99.90
60353;DHT22;46196;52.970;6.954;2023-04-28T09:12:53;12.30;99.90
60353;DHT22;46196;52.970;6.954;2023-04-28T09:17:52;12.10;99.90
60353;DHT22;46196;52.970;6.954;2023-04-28T09:20:22;12.10;99.90
60353;DHT22;46196;52.970;6.954;2023-04-28T09:22:49;12.00;99.90
60353;DHT22;46196;52.970;6.954;2023-04-28T09:25:16;12.00;99.90
60353;DHT22;46196;52.970;6.954;2023-04-28T09:27:42;12.00;99.90
60353;DHT22;46196;52.970;6.954;2023-04-28T09:30:08;11.90;99.90
60353;DHT22;46196;52.970;6.954;2023-04-28T09:32:36;11.90;99.90
60353;DHT22;46196;52.970;6.954;2023-04-28T09:35:02;12.00;99.90
60353;DHT22;46196;52.970;6.954;2023-04-28T09:37:30;12.00;99.90
60353;DHT22;46196;52.970;6.954;2023-04-28T09:40:01;12.10;99.90
60353;DHT22;46196;52.970;6.954;2023-04-28T09:42:42;12.10;99.90
60353;DHT22;46196;52.970;6.954;2023-04-28T09:45:09;12.30;99.90
60353;DHT22;46196;52.970;6.954;2023-04-28T09:47:43;12.50;99.90
60353;DHT22;46196;52.970;6.954;2023-04-28T09:50:12;12.90;99.90
60353;DHT22;46196;52.970;6.954;2023-04-28T09:52:40;13.30;99.90
60353;DHT22;46196;52.970;6.954;2023-04-28T09:55:07;13.50;99.90
60353;DHT22;46196;52.970;6.954;2023-04-28T09:57:34;13.50;99.90
60353;DHT22;46196;52.970;6.954;2023-04-28T10:00:01;13.50;99.90
60353;DHT22;46196;52.970;6.954;2023-04-28T10:02:27;13.50;99.90
60353;DHT22;46196;52.970;6.954;2023-04-28T10:04:53;13.40;99.90
60353;DHT22;46196;52.970;6.954;2023-04-28T10:07:20;13.50;99.90
60353;DHT22;46196;52.970;6.954;2023-04-28T10:09:47;13.50;99.90
60353;DHT22;46196;52.970;6.954;2023-04-28T10:12:21;13.60;99.90
60353;DHT22;46196;52.970;6.954;2023-04-28T10:14:48;13.80;99.90
60353;DHT22;46196;52.970;6.954;2023-04-28T10:17:16;14.00;99.90
60353;DHT22;46196;52.970;6.954;2023-04-28T10:19:44;14.10;99.90
60353;DHT22;46196;52.970;6.954;2023-04-28T10:27:34;14.70;99.90
60353;DHT22;46196;52.970;6.954;2023-04-28T10:30:10;14.80;99.90
60353;DHT22;46196;52.970;6.954;2023-04-28T10:32:36;14.90;99.90
60353;DHT22;46196;52.970;6.954;2023-04-28T10:38:21;14.90;99.90
60353;DHT22;46196;52.970;6.954;2023-04-28T10:40:49;14.90;99.90
60353;DHT22;46196;52.970;6.954;2023-04-28T10:48:20;14.80;99.90
60353;DHT22;46196;52.970;6.954;2023-04-28T10:54:06;14.80;99.90
60353;DHT22;46196;52.970;6.954;2023-04-28T10:56:32;14.90;99.90
60353;DHT22;46196;52.970;6.954;2023-04-28T10:58:59;15.00;99.90
60353;DHT22;46196;52.970;6.954;2023-04-28T11:03:58;15.30;99.90
60353;DHT22;46196;52.970;6.954;2023-04-28T11:06:43;15.40;99.90
60353;DHT22;46196;52.970;6.954;2023-04-28T11:14:36;16.10;99.90
60353;DHT22;46196;52.970;6.954;2023-04-28T11:17:09;16.30;99.90
60353;DHT22;46196;52.970;6.954;2023-04-28T11:19:42;16.50;99.90
60353;DHT22;46196;52.970;6.954;2023-04-28T11:22:14;16.60;99.90
60353;DHT22;46196;52.970;6.954;2023-04-28T11:24:40;16.60;99.90
60353;DHT22;46196;52.970;6.954;2023-04-28T11:27:06;16.60;99.90
60353;DHT22;46196;52.970;6.954;2023-04-28T11:29:37;16.60;99.90
60353;DHT22;46196;52.970;6.954;2023-04-28T11:32:07;16.50;99.90
60353;DHT22;46196;52.970;6.954;2023-04-28T11:34:33;16.50;99.90
60353;DHT22;46196;52.970;6.954;2023-04-28T11:37:00;16.40;99.90
60353;DHT22;46196;52.970;6.954;2023-04-28T11:39:33;16.30;99.90
60353;DHT22;46196;52.970;6.954;2023-04-28T11:42:08;16.20;99.90
60353;DHT22;46196;52.970;6.954;2023-04-28T11:44:34;16.20;99.90
60353;DHT22;46196;52.970;6.954;2023-04-28T11:49:29;16.20;99.90
60353;DHT22;46196;52.970;6.954;2023-04-28T11:51:56;16.30;99.90
60353;DHT22;46196;52.970;6.954;2023-04-28T11:54:27;16.20;99.90
60353;DHT22;46196;52.970;6.954;2023-04-28T11:56:54;16.10;99.90
60353;DHT22;46196;52.970;6.954;2023-04-28T11:59:28;16.00;99.90
60353;DHT22;46196;52.970;6.954;2023-04-28T12:02:05;15.80;99.90
60353;DHT22;46196;52.970;6.954;2023-04-28T12:04:35;15.70;99.90
60353;DHT22;46196;52.970;6.954;2023-04-28T12:07:16;15.70;99.90
60353;DHT22;46196;52.970;6.954;2023-04-28T12:09:43;15.70;99.90
60353;DHT22;46196;52.970;6.954;2023-04-28T12:12:12;15.80;99.90
60353;DHT22;46196;52.970;6.954;2023-04-28T12:15:11;15.80;99.90
60353;DHT22;46196;52.970;6.954;2023-04-28T12:17:41;15.90;99.90
60353;DHT22;46196;52.970;6.954;2023-04-28T12:20:11;16.00;99.90
60353;DHT22;46196;52.970;6.954;2023-04-28T12:22:46;16.00;99.90
60353;DHT22;46196;52.970;6.954;2023-04-28T12:25:14;16.10;99.90
60353;DHT22;46196;52.970;6.954;2023-04-28T12:28:05;16.10;99.90
60353;DHT22;46196;52.970;6.954;2023-04-28T12:30:36;16.30;99.90
60353;DHT22;46196;52.970;6.954;2023-04-28T12:33:21;16.30;99.90
60353;DHT22;46196;52.970;6.954;2023-04-28T12:35:48;16.40;99.90
60353;DHT22;46196;52.970;6.954;2023-04-28T12:38:14;16.50;99.90
60353;DHT22;46196;52.970;6.954;2023-04-28T12:40:41;16.40;99.90
60353;DHT22;46196;52.970;6.954;2023-04-28T12:43:07;16.30;99.90
60353;DHT22;46196;52.970;6.954;2023-04-28T12:45:32;16.20;99.90
60353;DHT22;46196;52.970;6.954;2023-04-28T12:47:58;16.10;99.90
60353;DHT22;46196;52.970;6.954;2023-04-28T12:50:24;15.90;99.90
60353;DHT22;46196;52.970;6.954;2023-04-28T12:52:51;16.00;99.90
60353;DHT22;46196;52.970;6.954;2023-04-28T12:55:17;15.80;99.90
60353;DHT22;46196;52.970;6.954;2023-04-28T12:57:43;15.80;99.90
60353;DHT22;46196;52.970;6.954;2023-04-28T13:00:10;15.90;99.90
60353;DHT22;46196;52.970;6.954;2023-04-28T13:02:36;15.90;99.90
60353;DHT22;46196;52.970;6.954;2023-04-28T13:05:02;15.90;99.90
60353;DHT22;46196;52.970;6.954;2023-04-28T13:07:28;15.90;99.90
60353;DHT22;46196;52.970;6.954;2023-04-28T13:09:54;16.00;99.90
60353;DHT22;46196;52.970;6.954;2023-04-28T13:12:20;15.90;99.90
60353;DHT22;46196;52.970;6.954;2023-04-28T13:14:47;15.90;99.90
60353;DHT22;46196;52.970;6.954;2023-04-28T13:17:12;15.90;99.90
60353;DHT22;46196;52.970;6.954;2023-04-28T13:19:38;15.90;99.90
60353;DHT22;46196;52.970;6.954;2023-04-28T13:22:05;15.80;99.90
60353;DHT22;46196;52.970;6.954;2023-04-28T13:24:31;15.70;99.90
60353;DHT22;46196;52.970;6.954;2023-04-28T13:27:00;15.60;99.90
60353;DHT22;46196;52.970;6.954;2023-04-28T13:29:27;15.60;99.90
60353;DHT22;46196;52.970;6.954;2023-04-28T13:31:53;15.60;99.90
60353;DHT22;46196;52.970;6.954;2023-04-28T13:34:19;15.60;99.90
60353;DHT22;46196;52.970;6.954;2023-04-28T13:36:44;15.50;99.90
60353;DHT22;46196;52.970;6.954;2023-04-28T13:39:12;15.40;99.90
60353;DHT22;46196;52.970;6.954;2023-04-28T13:41:41;15.30;99.90
60353;DHT22;46196;52.970;6.954;2023-04-28T13:44:07;15.20;99.90
60353;DHT22;46196;52.970;6.954;2023-04-28T13:46:33;15.30;99.90
60353;DHT22;46196;52.970;6.954;2023-04-28T13:48:59;15.20;99.90
60353;DHT22;46196;52.970;6.954;2023-04-28T13:51:25;15.20;99.90
60353;DHT22;46196;52.970;6.954;2023-04-28T13:53:50;15.10;99.90
60353;DHT22;46196;52.970;6.954;2023-04-28T13:56:16;15.10;99.90
60353;DHT22;46196;52.970;6.954;2023-04-28T13:58:42;14.90;99.90
60353;DHT22;46196;52.970;6.954;2023-04-28T14:01:08;14.80;99.90
60353;DHT22;46196;52.970;6.954;2023-04-28T14:03:33;14.70;99.90
60353;DHT22;46196;52.970;6.954;2023-04-28T14:06:00;14.60;99.90
60353;DHT22;46196;52.970;6.954;2023-04-28T14:08:26;14.50;99.90
60353;DHT22;46196;52.970;6.954;2023-04-28T14:10:53;14.40;99.90
60353;DHT22;46196;52.970;6.954;2023-04-28T14:13:19;14.40;99.90
60353;DHT22;46196;52.970;6.954;2023-04-28T14:15:45;14.30;99.90
60353;DHT22;46196;52.970;6.954;2023-04-28T14:18:12;14.30;99.90
60353;DHT22;46196;52.970;6.954;2023-04-28T14:20:39;14.20;99.90
60353;DHT22;46196;52.970;6.954;2023-04-28T14:23:04;14.10;99.90
60353;DHT22;46196;52.970;6.954;2023-04-28T14:25:30;13.80;99.90
60353;DHT22;46196;52.970;6.954;2023-04-28T14:27:56;14.10;99.90
60353;DHT22;46196;52.970;6.954;2023-04-28T14:30:22;14.00;99.90
60353;DHT22;46196;52.970;6.954;2023-04-28T14:32:48;14.00;99.90
60353;DHT22;46196;52.970;6.954;2023-04-28T14:35:14;14.00;99.90
60353;DHT22;46196;52.970;6.954;2023-04-28T14:37:41;14.00;99.90
60353;DHT22;46196;52.970;6.954;2023-04-28T14:40:07;14.00;99.90
60353;DHT22;46196;52.970;6.954;2023-04-28T14:42:34;14.00;99.90
60353;DHT22;46196;52.970;6.954;2023-04-28T14:45:04;14.00;99.90
60353;DHT22;46196;52.970;6.954;2023-04-28T14:47:31;14.10;99.90
60353;DHT22;46196;52.970;6.954;2023-04-28T14:49:57;14.10;99.90
60353;DHT22;46196;52.970;6.954;2023-04-28T14:52:24;14.10;99.90
60353;DHT22;46196;52.970;6.954;2023-04-28T14:54:52;14.00;99.90
60353;DHT22;46196;52.970;6.954;2023-04-28T14:57:18;14.00;99.90
60353;DHT22;46196;52.970;6.954;2023-04-28T14:59:44;14.00;99.90
60353;DHT22;46196;52.970;6.954;2023-04-28T15:02:11;13.90;99.90
60353;DHT22;46196;52.970;6.954;2023-04-28T15:04:38;13.90;99.90
60353;DHT22;46196;52.970;6.954;2023-04-28T15:07:04;13.90;99.90
60353;DHT22;46196;52.970;6.954;2023-04-28T15:09:30;13.90;99.90
60353;DHT22;46196;52.970;6.954;2023-04-28T15:11:56;13.90;99.90
60353;DHT22;46196;52.970;6.954;2023-04-28T15:14:22;13.90;99.90
60353;DHT22;46196;52.970;6.954;2023-04-28T15:16:47;13.90;99.90
60353;DHT22;46196;52.970;6.954;2023-04-28T15:19:13;13.90;99.90
60353;DHT22;46196;52.970;6.954;2023-04-28T15:21:40;13.90;99.90
60353;DHT22;46196;52.970;6.954;2023-04-28T15:24:06;13.90;99.90
60353;DHT22;46196;52.970;6.954;2023-04-28T15:26:31;13.90;99.90
60353;DHT22;46196;52.970;6.954;2023-04-28T15:28:58;13.90;99.90
60353;DHT22;46196;52.970;6.954;2023-04-28T15:31:25;13.90;99.90
60353;DHT22;46196;52.970;6.954;2023-04-28T15:33:53;13.90;99.90
60353;DHT22;46196;52.970;6.954;2023-04-28T15:36:19;13.90;99.90
60353;DHT22;46196;52.970;6.954;2023-04-28T15:38:46;13.90;99.90
60353;DHT22;46196;52.970;6.954;2023-04-28T15:41:12;13.90;99.90
60353;DHT22;46196;52.970;6.954;2023-04-28T15:43:39;13.80;99.90
60353;DHT22;46196;52.970;6.954;2023-04-28T15:46:05;13.80;99.90
60353;DHT22;46196;52.970;6.954;2023-04-28T15:48:36;13.80;99.90
60353;DHT22;46196;52.970;6.954;2023-04-28T15:51:03;13.80;99.90
60353;DHT22;46196;52.970;6.954;2023-04-28T15:53:29;13.80;99.90
60353;DHT22;46196;52.970;6.954;2023-04-28T15:55:56;13.80;99.90
60353;DHT22;46196;52.970;6.954;2023-04-28T15:58:21;13.80;99.90
60353;DHT22;46196;52.970;6.954;2023-04-28T16:00:47;13.80;99.90
60353;DHT22;46196;52.970;6.954;2023-04-28T16:03:13;13.70;99.90
60353;DHT22;46196;52.970;6.954;2023-04-28T16:05:39;13.80;99.90
60353;DHT22;46196;52.970;6.954;2023-04-28T16:08:04;13.70;99.90